createdAt,value
2018-12-20T00:01:39.672Z,2.39
2018-12-20T00:04:10.433Z,2.48
2018-12-20T00:06:40.659Z,2.51
2018-12-20T00:09:10.594Z,2.76
2018-12-20T00:11:40.757Z,3.18
2018-12-20T00:14:11.197Z,3.01
2018-12-20T00:16:41.862Z,2.89
2018-12-20T00:19:11.739Z,2.78
2018-12-20T00:21:41.694Z,2.66
2018-12-20T00:24:12.028Z,2.64
2018-12-20T00:26:42.429Z,2.57
2018-12-20T00:29:12.452Z,2.60
2018-12-20T00:31:42.460Z,2.48
2018-12-20T00:34:12.600Z,2.51
2018-12-20T00:36:42.667Z,2.48
2018-12-20T00:39:12.794Z,2.50
2018-12-20T00:41:43.280Z,2.49
2018-12-20T00:44:13.530Z,2.51
2018-12-20T00:46:43.674Z,2.52
2018-12-20T00:49:13.694Z,2.50
2018-12-20T00:51:43.738Z,2.52
2018-12-20T00:54:14.304Z,2.56
2018-12-20T00:56:44.502Z,2.53
2018-12-20T00:59:14.575Z,2.56
2018-12-20T01:01:44.549Z,2.61
2018-12-20T01:04:15.722Z,2.66
2018-12-20T01:06:46.828Z,2.63
2018-12-20T01:09:18.351Z,2.69
2018-12-20T01:11:48.264Z,2.67
2018-12-20T01:14:18.273Z,2.67
2018-12-20T01:16:48.371Z,2.72
2018-12-20T01:19:18.647Z,2.68
2018-12-20T01:21:48.865Z,2.77
2018-12-20T01:24:19.019Z,2.74
2018-12-20T01:26:49.483Z,2.70
2018-12-20T01:29:19.384Z,2.78
2018-12-20T01:31:50.020Z,2.74
2018-12-20T01:34:20.394Z,2.77
2018-12-20T01:36:50.676Z,2.76
2018-12-20T01:39:20.821Z,2.72
2018-12-20T01:41:51.231Z,2.75
2018-12-20T01:44:21.603Z,2.79
2018-12-20T01:46:51.796Z,2.74
2018-12-20T01:49:22.754Z,2.77
2018-12-20T01:51:53.325Z,2.79
2018-12-20T01:54:24.246Z,2.85
2018-12-20T01:56:54.376Z,2.86
2018-12-20T01:59:24.621Z,2.88
2018-12-20T02:01:54.831Z,2.88
2018-12-20T02:04:25.608Z,2.79
2018-12-20T02:06:56.129Z,2.86
2018-12-20T02:09:26.424Z,2.81
2018-12-20T02:11:56.493Z,2.81
2018-12-20T02:14:26.683Z,2.81
2018-12-20T02:16:56.741Z,2.84
2018-12-20T02:19:26.756Z,2.89
2018-12-20T02:21:57.505Z,2.92
2018-12-20T02:24:27.699Z,2.89
2018-12-20T02:26:58.151Z,2.94
2018-12-20T02:29:28.577Z,2.99
2018-12-20T02:32:01.587Z,2.97
2018-12-20T02:34:40.325Z,2.95
2018-12-20T02:37:10.807Z,2.92
2018-12-20T02:39:41.576Z,2.96
2018-12-20T02:42:11.636Z,2.96
2018-12-20T02:44:42.146Z,2.92
2018-12-20T02:47:12.443Z,2.91
2018-12-20T02:49:42.367Z,2.89
2018-12-20T02:52:12.775Z,2.93
2018-12-20T02:54:42.955Z,2.92
2018-12-20T02:57:13.813Z,2.92
2018-12-20T02:59:43.869Z,2.93
2018-12-20T03:02:14.301Z,2.87
2018-12-20T03:04:44.496Z,2.95
2018-12-20T03:07:16.068Z,2.72
2018-12-20T03:09:46.522Z,2.85
2018-12-20T03:12:16.612Z,2.84
2018-12-20T03:14:46.570Z,2.82
2018-12-20T03:17:17.057Z,2.80
2018-12-20T03:19:47.631Z,2.74
2018-12-20T03:22:17.919Z,2.75
2018-12-20T03:24:48.366Z,2.75
2018-12-20T03:27:18.959Z,2.74
2018-12-20T03:29:49.480Z,2.66
2018-12-20T03:32:19.756Z,2.72
2018-12-20T03:34:49.745Z,2.66
2018-12-20T03:37:21.126Z,1.84
2018-12-20T03:39:51.582Z,2.66
2018-12-20T03:42:22.456Z,2.67
2018-12-20T03:44:53.248Z,2.66
2018-12-20T03:47:23.519Z,2.60
2018-12-20T03:49:53.468Z,2.56
2018-12-20T03:52:23.552Z,2.55
2018-12-20T03:54:53.988Z,2.55
2018-12-20T03:57:25.620Z,2.54
2018-12-20T03:59:55.691Z,2.57
2018-12-20T04:02:26.407Z,2.58
2018-12-20T04:04:56.766Z,2.63
2018-12-20T04:07:26.762Z,2.56
2018-12-20T04:09:56.820Z,2.44
2018-12-20T04:12:27.136Z,2.52
2018-12-20T04:14:58.584Z,2.58
2018-12-20T04:17:30.220Z,2.55
2018-12-20T04:20:01.169Z,2.53
2018-12-20T04:22:31.741Z,2.53
2018-12-20T04:25:02.335Z,2.49
2018-12-20T04:27:32.693Z,2.45
2018-12-20T04:30:02.607Z,2.44
2018-12-20T04:32:32.874Z,2.44
2018-12-20T04:35:03.228Z,2.42
2018-12-20T04:37:33.492Z,2.44
2018-12-20T04:40:03.637Z,2.33
2018-12-20T04:42:33.829Z,2.40
2018-12-20T04:45:04.695Z,2.43
2018-12-20T04:47:36.004Z,2.33
2018-12-20T04:50:06.985Z,2.30
2018-12-20T04:52:37.304Z,2.34
2018-12-20T04:55:07.346Z,2.29
2018-12-20T04:57:37.538Z,2.29
2018-12-20T05:00:08.216Z,2.26
2018-12-20T05:02:38.429Z,2.13
2018-12-20T05:05:09.292Z,2.21
2018-12-20T05:07:39.195Z,2.23
2018-12-20T05:10:09.589Z,2.19
2018-12-20T05:12:39.975Z,2.20
2018-12-20T05:15:10.565Z,2.20
2018-12-20T05:17:41.303Z,2.13
2018-12-20T05:20:11.664Z,2.19
2018-12-20T05:22:42.197Z,2.08
2018-12-20T05:25:12.493Z,2.19
2018-12-20T05:27:42.451Z,2.15
2018-12-20T05:30:12.621Z,2.15
2018-12-20T05:32:42.938Z,2.24
2018-12-20T05:35:13.394Z,2.21
2018-12-20T05:37:44.022Z,2.09
2018-12-20T05:40:14.653Z,2.18
2018-12-20T05:42:45.046Z,2.13
2018-12-20T05:45:15.335Z,2.08
2018-12-20T05:47:45.467Z,2.09
2018-12-20T05:50:15.612Z,2.11
2018-12-20T05:52:45.596Z,2.11
2018-12-20T05:55:15.519Z,2.08
2018-12-20T05:57:45.617Z,2.12
2018-12-20T06:00:16.824Z,2.17
2018-12-20T06:02:46.872Z,2.22
2018-12-20T06:05:17.506Z,2.13
2018-12-20T06:07:47.781Z,2.18
2018-12-20T06:10:18.428Z,2.17
2018-12-20T06:12:57.222Z,2.14
2018-12-20T06:15:27.465Z,2.18
2018-12-20T06:17:57.658Z,2.13
2018-12-20T06:20:28.452Z,2.15
2018-12-20T06:22:59.658Z,2.14
2018-12-20T06:25:29.596Z,2.09
2018-12-20T06:27:59.534Z,2.10
2018-12-20T06:30:29.723Z,2.11
2018-12-20T06:32:59.631Z,2.09
2018-12-20T06:35:29.581Z,2.04
2018-12-20T06:38:00.087Z,2.07
2018-12-20T06:40:30.431Z,2.09
2018-12-20T06:43:00.679Z,2.02
2018-12-20T06:45:30.502Z,2.11
2018-12-20T06:48:00.820Z,2.06
2018-12-20T06:50:30.883Z,2.07
2018-12-20T06:55:46.563Z,1.96
2018-12-20T06:58:16.960Z,1.99
2018-12-20T07:00:47.125Z,2.01
2018-12-20T07:03:17.422Z,1.92
2018-12-20T07:05:47.367Z,2.01
2018-12-20T07:08:17.279Z,1.90
2018-12-20T07:10:47.713Z,1.90
2018-12-20T07:13:17.503Z,1.90
2018-12-20T07:15:53.449Z,1.97
2018-12-20T07:18:23.219Z,1.87
2018-12-20T07:20:53.441Z,1.99
2018-12-20T07:23:24.959Z,1.91
2018-12-20T07:25:55.084Z,1.90
2018-12-20T07:28:25.272Z,1.90
2018-12-20T07:30:55.372Z,1.86
2018-12-20T07:33:25.549Z,1.89
2018-12-20T07:35:55.603Z,1.86
2018-12-20T07:38:25.508Z,1.85
2018-12-20T07:40:55.408Z,1.83
2018-12-20T07:43:25.488Z,1.80
2018-12-20T07:45:55.263Z,1.83
2018-12-20T07:48:32.099Z,1.80
2018-12-20T07:50:57.665Z,1.78
2018-12-20T07:53:27.639Z,1.79
2018-12-20T07:55:57.587Z,1.74
2018-12-20T07:58:27.500Z,1.79
2018-12-20T08:00:57.318Z,1.82
2018-12-20T08:03:27.379Z,1.85
2018-12-20T08:05:57.620Z,1.87
2018-12-20T08:08:27.637Z,1.85
2018-12-20T08:10:57.678Z,1.82
2018-12-20T08:13:27.776Z,1.83
2018-12-20T08:15:57.792Z,1.77
2018-12-20T08:18:35.230Z,1.75
2018-12-20T08:21:05.183Z,1.85
2018-12-20T08:23:35.365Z,1.82
2018-12-20T08:26:05.572Z,1.75
2018-12-20T08:28:35.619Z,1.77
2018-12-20T08:31:05.495Z,1.80
2018-12-20T08:33:35.695Z,1.85
2018-12-20T08:36:06.479Z,1.87
2018-12-20T08:38:36.413Z,1.86
2018-12-20T08:41:06.463Z,1.87
2018-12-20T08:43:36.537Z,1.83
2018-12-20T08:46:06.654Z,1.90
2018-12-20T08:48:36.975Z,1.87
2018-12-20T08:51:07.363Z,1.84
2018-12-20T08:53:37.277Z,1.87
2018-12-20T08:56:07.516Z,1.86
2018-12-20T08:58:37.477Z,1.83
2018-12-20T09:01:07.298Z,1.86
2018-12-20T09:03:38.057Z,1.85
2018-12-20T09:06:08.303Z,1.92
2018-12-20T09:08:38.594Z,1.93
2018-12-20T09:11:08.534Z,1.86
2018-12-20T09:13:38.593Z,1.81
2018-12-20T09:16:08.737Z,1.86
2018-12-20T09:18:39.916Z,1.87
2018-12-20T09:21:10.130Z,1.89
2018-12-20T09:23:40.404Z,1.87
2018-12-20T09:26:10.517Z,1.20
2018-12-20T09:28:40.449Z,1.81
2018-12-20T09:31:10.440Z,1.81
2018-12-20T09:33:40.529Z,1.83
2018-12-20T09:36:10.514Z,1.91
2018-12-20T09:38:40.735Z,1.94
2018-12-20T09:41:11.496Z,1.94
2018-12-20T09:43:41.645Z,1.88
2018-12-20T09:46:11.549Z,2.01
2018-12-20T09:48:41.565Z,2.01
2018-12-20T09:51:18.845Z,2.04
2018-12-20T09:53:49.695Z,2.04
2018-12-20T09:56:19.836Z,2.06
2018-12-20T09:58:49.706Z,2.00
2018-12-20T10:01:19.797Z,1.97
2018-12-20T10:03:49.734Z,2.05
2018-12-20T10:06:22.915Z,2.06
2018-12-20T10:08:53.372Z,2.12
2018-12-20T10:11:23.763Z,2.07
2018-12-20T10:13:53.837Z,2.01
2018-12-20T10:16:23.981Z,2.11
2018-12-20T10:18:54.085Z,2.16
2018-12-20T10:21:24.781Z,2.17
2018-12-20T10:23:54.695Z,2.13
2018-12-20T10:26:24.591Z,2.14
2018-12-20T10:28:54.636Z,2.14
2018-12-20T10:31:24.592Z,2.20
2018-12-20T10:33:54.563Z,1.36
2018-12-20T10:36:24.596Z,2.24
2018-12-20T10:38:54.553Z,2.32
2018-12-20T10:41:24.666Z,2.40
2018-12-20T10:43:54.675Z,2.45
2018-12-20T10:46:24.560Z,2.50
2018-12-20T10:48:54.777Z,2.58
2018-12-20T10:51:24.812Z,2.61
2018-12-20T10:54:10.902Z,2.53
2018-12-20T10:56:42.806Z,2.68
2018-12-20T10:59:12.668Z,2.69
2018-12-20T11:01:50.569Z,2.72
2018-12-20T11:04:25.515Z,2.74
2018-12-20T11:07:00.248Z,2.80
2018-12-20T11:09:35.213Z,2.84
2018-12-20T11:12:09.230Z,2.86
2018-12-20T11:14:39.493Z,2.86
2018-12-20T11:17:09.659Z,2.88
2018-12-20T11:19:39.730Z,2.84
2018-12-20T11:22:09.882Z,2.89
2018-12-20T11:24:40.457Z,2.96
2018-12-20T11:27:18.829Z,2.92
2018-12-20T11:29:48.799Z,2.99
2018-12-20T11:32:18.723Z,3.09
2018-12-20T11:34:48.735Z,3.09
2018-12-20T11:37:19.139Z,3.04
2018-12-20T11:39:49.276Z,3.02
2018-12-20T11:42:19.509Z,3.09
2018-12-20T11:44:49.560Z,3.17
2018-12-20T11:47:24.597Z,3.19
2018-12-20T11:49:54.642Z,3.21
2018-12-20T11:52:24.686Z,3.22
2018-12-20T11:54:54.731Z,3.26
2018-12-20T11:57:24.683Z,3.27
2018-12-20T11:59:55.267Z,3.31
2018-12-20T12:02:26.016Z,3.38
2018-12-20T12:04:56.133Z,3.43
2018-12-20T12:07:26.559Z,3.41
2018-12-20T12:09:56.542Z,3.41
2018-12-20T12:12:26.590Z,3.41
2018-12-20T12:14:56.777Z,3.36
2018-12-20T12:17:26.664Z,3.35
2018-12-20T12:19:56.604Z,3.31
2018-12-20T12:22:26.671Z,3.27
2018-12-20T12:24:56.649Z,3.27
2018-12-20T12:27:26.579Z,3.20
2018-12-20T12:29:56.576Z,3.22
2018-12-20T12:32:26.673Z,3.27
2018-12-20T12:34:56.784Z,3.28
2018-12-20T12:37:26.720Z,3.32
2018-12-20T12:39:56.734Z,3.34
2018-12-20T12:42:26.899Z,3.37
2018-12-20T12:44:57.249Z,3.32
2018-12-20T12:47:32.314Z,3.33
2018-12-20T12:50:02.789Z,3.37
2018-12-20T12:52:32.731Z,3.40
2018-12-20T12:55:02.727Z,3.34
2018-12-20T12:57:33.266Z,3.37
2018-12-20T13:00:03.467Z,3.36
2018-12-20T13:02:33.633Z,3.31
2018-12-20T13:05:03.676Z,3.31
2018-12-20T13:07:33.855Z,3.32
2018-12-20T13:10:04.737Z,3.31
2018-12-20T13:12:34.819Z,3.32
2018-12-20T13:15:05.473Z,3.33
2018-12-20T13:17:35.812Z,3.34
2018-12-20T13:20:07.785Z,3.34
2018-12-20T13:22:38.030Z,3.33
2018-12-20T13:25:09.340Z,3.34
2018-12-20T13:27:39.683Z,3.35
2018-12-20T13:30:12.291Z,3.35
2018-12-20T13:32:42.305Z,3.34
2018-12-20T13:35:13.256Z,3.35
2018-12-20T13:37:43.451Z,3.37
2018-12-20T13:40:13.580Z,3.34
2018-12-20T13:42:43.629Z,3.34
2018-12-20T13:45:13.629Z,3.36
2018-12-20T13:47:43.589Z,3.38
2018-12-20T13:50:13.816Z,3.34
2018-12-20T13:52:43.849Z,3.36
2018-12-20T13:55:13.908Z,3.33
2018-12-20T13:57:44.220Z,3.35
2018-12-20T14:00:16.639Z,3.33
2018-12-20T14:02:46.795Z,3.32
2018-12-20T14:05:17.554Z,3.33
2018-12-20T14:07:47.965Z,3.32
2018-12-20T14:10:18.277Z,3.33
2018-12-20T14:12:48.888Z,3.35
2018-12-20T14:15:19.133Z,3.36
2018-12-20T14:17:49.532Z,3.38
2018-12-20T14:20:19.599Z,3.35
2018-12-20T14:22:49.703Z,3.33
2018-12-20T14:25:19.608Z,3.32
2018-12-20T14:27:49.499Z,3.21
2018-12-20T14:30:19.457Z,3.17
2018-12-20T14:32:49.642Z,3.16
2018-12-20T14:35:19.950Z,3.18
2018-12-20T14:37:50.253Z,3.16
2018-12-20T14:40:20.372Z,3.05
2018-12-20T14:42:50.428Z,3.14
2018-12-20T14:45:20.643Z,2.67
2018-12-20T14:47:50.753Z,3.14
2018-12-20T14:50:20.768Z,3.12
2018-12-20T14:52:51.099Z,3.09
2018-12-20T14:55:21.634Z,3.11
2018-12-20T14:57:52.846Z,3.13
2018-12-20T15:00:22.839Z,3.05
2018-12-20T15:02:53.153Z,3.04
2018-12-20T15:05:23.764Z,3.07
2018-12-20T15:07:53.885Z,3.04
2018-12-20T15:10:31.865Z,3.01
2018-12-20T15:13:01.742Z,3.04
2018-12-20T15:15:31.694Z,3.04
2018-12-20T15:18:01.646Z,3.09
2018-12-20T15:20:40.235Z,3.01
2018-12-20T15:23:04.442Z,2.98
2018-12-20T15:25:34.626Z,3.00
2018-12-20T15:28:04.882Z,3.01
2018-12-20T15:30:34.991Z,3.03
2018-12-20T15:33:07.698Z,2.99
2018-12-20T15:35:37.911Z,3.01
2018-12-20T15:38:08.725Z,3.02
2018-12-20T15:40:39.684Z,3.00
2018-12-20T15:43:09.560Z,3.00
2018-12-20T15:45:39.506Z,3.03
2018-12-20T15:48:09.629Z,3.01
2018-12-20T15:50:40.469Z,3.04
2018-12-20T15:53:11.418Z,3.06
2018-12-20T15:55:41.593Z,3.06
2018-12-20T15:58:12.611Z,3.05
2018-12-20T16:00:43.375Z,3.10
2018-12-20T16:03:13.384Z,3.12
2018-12-20T16:05:43.536Z,3.07
2018-12-20T16:08:13.705Z,3.14
2018-12-20T16:10:43.832Z,3.03
2018-12-20T16:13:13.751Z,3.01
2018-12-20T16:15:44.862Z,2.94
2018-12-20T16:18:15.058Z,2.84
2018-12-20T16:20:45.482Z,2.78
2018-12-20T16:23:16.442Z,2.74
2018-12-20T16:25:47.107Z,2.77
2018-12-20T16:28:17.345Z,2.72
2018-12-20T16:30:47.479Z,2.73
2018-12-20T16:33:17.625Z,2.60
2018-12-20T16:35:47.536Z,2.48
2018-12-20T16:38:17.448Z,2.50
2018-12-20T16:40:47.717Z,2.48
2018-12-20T16:43:17.786Z,2.42
2018-12-20T16:45:47.863Z,2.47
2018-12-20T16:48:22.403Z,2.43
2018-12-20T16:50:53.347Z,2.39
2018-12-20T16:53:24.687Z,2.40
2018-12-20T16:55:54.979Z,2.34
2018-12-20T16:58:25.204Z,2.35
2018-12-20T17:00:55.984Z,2.26
2018-12-20T17:03:26.383Z,2.30
2018-12-20T17:05:56.448Z,2.26
2018-12-20T17:08:27.030Z,2.32
2018-12-20T17:10:58.628Z,2.17
2018-12-20T17:13:28.828Z,2.14
2018-12-20T17:15:58.792Z,2.16
2018-12-20T17:18:28.707Z,2.18
2018-12-20T17:20:58.598Z,2.13
2018-12-20T17:23:35.632Z,2.16
2018-12-20T17:26:00.635Z,2.15
2018-12-20T17:28:30.629Z,2.17
2018-12-20T17:31:00.488Z,2.26
2018-12-20T17:33:30.389Z,2.33
2018-12-20T17:36:00.485Z,2.33
2018-12-20T17:38:30.420Z,2.24
2018-12-20T17:41:00.480Z,2.25
2018-12-20T17:43:30.636Z,2.15
2018-12-20T17:46:00.611Z,2.12
2018-12-20T17:48:31.128Z,2.14
2018-12-20T17:51:02.233Z,2.14
2018-12-20T17:53:32.457Z,2.11
2018-12-20T17:56:02.550Z,2.07
2018-12-20T17:58:33.132Z,2.06
2018-12-20T18:01:03.363Z,2.11
2018-12-20T18:03:33.240Z,2.12
2018-12-20T18:06:03.604Z,2.20
2018-12-20T18:08:33.608Z,2.15
2018-12-20T18:11:03.503Z,2.16
2018-12-20T18:13:33.465Z,2.16
2018-12-20T18:16:03.566Z,2.15
2018-12-20T18:18:33.995Z,2.26
2018-12-20T18:21:04.319Z,2.27
2018-12-20T18:23:34.192Z,2.23
2018-12-20T18:26:05.509Z,2.26
2018-12-20T18:28:35.814Z,2.20
2018-12-20T18:31:06.033Z,2.31
2018-12-20T18:33:36.554Z,2.29
2018-12-20T18:36:08.116Z,2.35
2018-12-20T18:38:38.382Z,2.39
2018-12-20T18:41:08.557Z,2.38
2018-12-20T18:43:38.506Z,2.37
2018-12-20T18:46:08.751Z,2.40
2018-12-20T18:48:38.696Z,2.42
2018-12-20T18:51:08.552Z,2.40
2018-12-20T18:53:38.563Z,2.44
2018-12-20T18:56:08.584Z,2.45
2018-12-20T18:58:38.480Z,2.45
2018-12-20T19:01:08.535Z,2.49
2018-12-20T19:03:38.673Z,2.52
2018-12-20T19:06:08.679Z,2.55
2018-12-20T19:08:38.622Z,2.64
2018-12-20T19:11:08.635Z,2.64
2018-12-20T19:13:38.733Z,2.63
2018-12-20T19:16:08.984Z,2.68
2018-12-20T19:18:39.247Z,2.68
2018-12-20T19:21:09.688Z,2.65
2018-12-20T19:23:39.629Z,2.68
2018-12-20T19:26:09.696Z,2.66
2018-12-20T19:28:40.331Z,2.67
2018-12-20T19:31:10.677Z,2.67
2018-12-20T19:33:40.804Z,2.65
2018-12-20T19:36:11.378Z,2.70
2018-12-20T19:38:41.948Z,2.72
2018-12-20T19:41:13.150Z,2.82
2018-12-20T19:43:43.346Z,2.80
2018-12-20T19:46:14.272Z,2.79
2018-12-20T19:48:44.328Z,2.73
2018-12-20T19:51:15.356Z,2.78
2018-12-20T19:53:45.396Z,2.79
2018-12-20T19:56:20.107Z,2.80
2018-12-20T19:58:50.192Z,2.77
2018-12-20T20:01:20.649Z,2.77
2018-12-20T20:03:50.580Z,2.73
2018-12-20T20:06:21.307Z,2.75
2018-12-20T20:08:51.429Z,2.80
2018-12-20T20:11:21.498Z,2.83
2018-12-20T20:13:52.035Z,2.80
2018-12-20T20:16:22.599Z,2.82
2018-12-20T20:18:52.825Z,2.78
2018-12-20T20:21:24.178Z,2.82
2018-12-20T20:23:54.555Z,2.80
2018-12-20T20:26:24.436Z,2.80
2018-12-20T20:28:54.956Z,2.81
2018-12-20T20:31:25.695Z,2.81
2018-12-20T20:33:55.604Z,2.85
2018-12-20T20:36:25.679Z,2.86
2018-12-20T20:39:01.993Z,2.89
2018-12-20T20:41:29.664Z,2.93
2018-12-20T20:44:00.620Z,2.95
2018-12-20T20:46:30.962Z,2.96
2018-12-20T20:49:01.277Z,3.01
2018-12-20T20:51:31.386Z,2.99
2018-12-20T20:54:01.362Z,3.01
2018-12-20T20:56:32.459Z,3.04
2018-12-20T20:59:02.855Z,3.03
2018-12-20T21:01:32.906Z,3.06
2018-12-20T21:04:03.705Z,3.07
2018-12-20T21:06:34.406Z,3.11
2018-12-20T21:09:07.222Z,3.12
2018-12-20T21:11:37.384Z,3.09
2018-12-20T21:14:07.409Z,3.14
2018-12-20T21:16:38.476Z,3.13
2018-12-20T21:19:08.475Z,3.35
2018-12-20T21:21:40.181Z,5.02
2018-12-20T21:24:10.607Z,4.60
2018-12-20T21:26:40.598Z,4.37
2018-12-20T21:29:10.559Z,4.13
2018-12-20T21:31:40.739Z,4.32
2018-12-20T21:34:10.711Z,5.07
2018-12-20T21:36:40.731Z,5.42
2018-12-20T21:39:10.638Z,5.09
2018-12-20T21:44:27.116Z,4.50
2018-12-20T21:46:58.664Z,4.33
2018-12-20T21:49:28.769Z,4.15
2018-12-20T21:51:58.678Z,4.04
2018-12-20T21:54:28.735Z,3.98
2018-12-20T21:56:58.668Z,3.84
2018-12-20T21:59:28.707Z,3.80
2018-12-20T22:01:59.659Z,3.79
2018-12-20T22:04:29.529Z,3.77
2018-12-20T22:06:59.530Z,3.71
2018-12-20T22:09:29.615Z,3.67
2018-12-20T22:11:59.678Z,3.67
2018-12-20T22:14:29.610Z,3.68
2018-12-20T22:16:59.665Z,3.67
2018-12-20T22:19:30.098Z,3.71
2018-12-20T22:22:00.319Z,3.67
2018-12-20T22:24:30.237Z,3.69
2018-12-20T22:27:00.714Z,3.66
2018-12-20T22:29:30.708Z,3.73
2018-12-20T22:32:11.463Z,3.76
2018-12-20T22:34:41.625Z,3.69
2018-12-20T22:37:11.516Z,3.72
2018-12-20T22:39:41.439Z,3.76
2018-12-20T22:42:11.860Z,3.72
2018-12-20T22:44:41.874Z,3.67
2018-12-20T22:47:12.168Z,3.65
2018-12-20T22:49:42.696Z,3.70
2018-12-20T22:52:12.669Z,3.71
2018-12-20T22:54:42.706Z,3.70
2018-12-20T22:57:15.240Z,3.69
2018-12-20T22:59:45.494Z,3.70
2018-12-20T23:02:18.210Z,3.73
2018-12-20T23:04:47.513Z,3.69
2018-12-20T23:07:17.475Z,3.70
2018-12-20T23:09:47.534Z,3.71
2018-12-20T23:12:18.101Z,3.74
2018-12-20T23:14:48.606Z,3.72
2018-12-20T23:17:18.793Z,3.73
2018-12-20T23:19:48.894Z,3.74
2018-12-20T23:22:19.189Z,3.76
2018-12-20T23:24:49.177Z,3.78
2018-12-20T23:27:19.293Z,3.75
2018-12-20T23:29:49.430Z,3.81
2018-12-20T23:32:19.351Z,3.89
2018-12-20T23:34:50.383Z,3.86
2018-12-20T23:37:20.379Z,3.91
2018-12-20T23:39:50.489Z,3.88
2018-12-20T23:42:20.643Z,3.92
2018-12-20T23:44:50.563Z,3.85
2018-12-20T23:47:20.553Z,3.85
2018-12-20T23:49:51.295Z,3.86
2018-12-20T23:52:22.744Z,3.90
2018-12-20T23:54:52.804Z,3.88
2018-12-20T23:57:22.642Z,3.94
2018-12-20T23:59:52.617Z,3.94
